createdAt,value
2018-09-26T00:01:42.115Z,103521.00
2018-09-26T00:04:27.864Z,103515.00
2018-09-26T00:06:57.754Z,103508.00
2018-09-26T00:09:27.697Z,103507.00
2018-09-26T00:11:57.074Z,103500.00
2018-09-26T00:14:26.342Z,103493.00
2018-09-26T00:16:55.661Z,103494.00
2018-09-26T00:19:25.073Z,103506.00
2018-09-26T00:21:54.445Z,103515.00
2018-09-26T00:24:23.759Z,103507.00
2018-09-26T00:26:53.033Z,103502.00
2018-09-26T00:29:22.322Z,103497.00
2018-09-26T00:31:52.346Z,103480.00
2018-09-26T00:34:22.186Z,103470.00
2018-09-26T00:36:52.293Z,103465.00
2018-09-26T00:39:22.204Z,103469.00
2018-09-26T00:41:52.271Z,103461.00
2018-09-26T00:44:22.197Z,103459.00
2018-09-26T00:46:52.204Z,103448.00
2018-09-26T00:49:22.282Z,103442.00
2018-09-26T00:51:52.256Z,103438.00
2018-09-26T00:54:22.311Z,103449.00
2018-09-26T00:56:52.267Z,103445.00
2018-09-26T00:59:22.251Z,103440.00
2018-09-26T01:01:52.279Z,103430.00
2018-09-26T01:04:22.215Z,103434.00
2018-09-26T01:06:52.263Z,103450.00
2018-09-26T01:09:22.352Z,103450.00
2018-09-26T01:11:52.336Z,103456.00
2018-09-26T01:14:22.302Z,103468.00
2018-09-26T01:16:52.297Z,103464.00
2018-09-26T01:19:22.367Z,103466.00
2018-09-26T01:21:52.401Z,103454.00
2018-09-26T01:24:22.345Z,103442.00
2018-09-26T01:26:52.416Z,103436.00
2018-09-26T01:29:22.291Z,103451.00
2018-09-26T01:31:52.336Z,103440.00
2018-09-26T01:34:22.350Z,103440.00
2018-09-26T01:36:52.497Z,103440.00
2018-09-26T01:39:22.433Z,103439.00
2018-09-26T01:41:52.407Z,103437.00
2018-09-26T01:44:22.338Z,103427.00
2018-09-26T01:46:52.365Z,103424.00
2018-09-26T01:49:22.363Z,103418.00
2018-09-26T01:51:52.383Z,103405.00
2018-09-26T01:54:22.322Z,103396.00
2018-09-26T01:56:52.434Z,103389.00
2018-09-26T01:59:22.413Z,103391.00
2018-09-26T02:01:52.435Z,103396.00
2018-09-26T02:04:22.367Z,103391.00
2018-09-26T02:06:52.405Z,103390.00
2018-09-26T02:09:25.009Z,103385.00
2018-09-26T02:11:54.293Z,103382.00
2018-09-26T02:14:23.569Z,103382.00
2018-09-26T02:16:52.834Z,103378.00
2018-09-26T02:19:22.422Z,103383.00
2018-09-26T02:21:52.486Z,103389.00
2018-09-26T02:24:22.462Z,103388.00
2018-09-26T02:26:52.489Z,103392.00
2018-09-26T02:29:22.402Z,103389.00
2018-09-26T02:31:52.382Z,103387.00
2018-09-26T02:34:22.444Z,103386.00
2018-09-26T02:36:52.415Z,103387.00
2018-09-26T02:39:22.461Z,103376.00
2018-09-26T02:41:52.525Z,103371.00
2018-09-26T02:44:22.458Z,103370.00
2018-09-26T02:46:52.433Z,103362.00
2018-09-26T02:49:22.478Z,103356.00
2018-09-26T02:51:52.421Z,103352.00
2018-09-26T02:54:22.398Z,103352.00
2018-09-26T02:56:52.454Z,103350.00
2018-09-26T02:59:22.463Z,103354.00
2018-09-26T03:01:52.446Z,103356.00
2018-09-26T03:04:22.495Z,103358.00
2018-09-26T03:06:52.453Z,103355.00
2018-09-26T03:09:22.568Z,103355.00
2018-09-26T03:11:52.462Z,103354.00
2018-09-26T03:14:22.588Z,103353.00
2018-09-26T03:16:52.521Z,103352.00
2018-09-26T03:19:22.560Z,103350.00
2018-09-26T03:21:52.485Z,103347.00
2018-09-26T03:24:22.535Z,103347.00
2018-09-26T03:26:52.519Z,103341.00
2018-09-26T03:29:22.509Z,103334.00
2018-09-26T03:31:52.531Z,103336.00
2018-09-26T03:34:22.531Z,103337.00
2018-09-26T03:36:52.638Z,103327.00
2018-09-26T03:39:22.729Z,103322.00
2018-09-26T03:41:52.623Z,103315.00
2018-09-26T03:44:22.575Z,103315.00
2018-09-26T03:46:52.610Z,103312.00
2018-09-26T03:49:22.582Z,103315.00
2018-09-26T03:51:52.598Z,103316.00
2018-09-26T03:54:22.578Z,103317.00
2018-09-26T03:56:52.596Z,103315.00
2018-09-26T03:59:22.676Z,103311.00
2018-09-26T04:01:52.678Z,103309.00
2018-09-26T04:04:22.569Z,103301.00
2018-09-26T04:06:52.629Z,103294.00
2018-09-26T04:09:22.629Z,103290.00
2018-09-26T04:11:52.585Z,103292.00
2018-09-26T04:14:22.694Z,103300.00
2018-09-26T04:16:52.688Z,103304.00
2018-09-26T04:19:22.636Z,103295.00
2018-09-26T04:21:52.668Z,103295.00
2018-09-26T04:24:22.648Z,103284.00
2018-09-26T04:26:52.819Z,103277.00
2018-09-26T04:29:22.762Z,103274.00
2018-09-26T04:31:52.689Z,103266.00
2018-09-26T04:34:22.732Z,103262.00
2018-09-26T04:36:52.782Z,103267.00
2018-09-26T04:39:22.645Z,103263.00
2018-09-26T04:41:52.706Z,103252.00
2018-09-26T04:44:22.771Z,103256.00
2018-09-26T04:46:52.729Z,103253.00
2018-09-26T04:49:29.397Z,103251.00
2018-09-26T04:51:58.695Z,103243.00
2018-09-26T04:54:28.025Z,103238.00
2018-09-26T04:56:57.377Z,103236.00
2018-09-26T04:59:26.641Z,103232.00
2018-09-26T05:01:55.958Z,103231.00
2018-09-26T05:04:25.282Z,103232.00
2018-09-26T05:06:54.606Z,103232.00
2018-09-26T05:09:23.886Z,103231.00
2018-09-26T05:11:53.198Z,103220.00
2018-09-26T05:14:22.781Z,103216.00
2018-09-26T05:16:52.808Z,103208.00
2018-09-26T05:19:22.815Z,103204.00
2018-09-26T05:21:52.773Z,103203.00
2018-09-26T05:24:22.901Z,103205.00
2018-09-26T05:26:52.788Z,103193.00
2018-09-26T05:29:22.747Z,103204.00
2018-09-26T05:31:52.917Z,103198.00
2018-09-26T05:34:22.850Z,103198.00
2018-09-26T05:36:52.881Z,103184.00
2018-09-26T05:39:22.806Z,103176.00
2018-09-26T05:41:52.887Z,103168.00
2018-09-26T05:44:22.904Z,103166.00
2018-09-26T05:46:52.853Z,103168.00
2018-09-26T05:49:22.882Z,103159.00
2018-09-26T05:51:52.918Z,103164.00
2018-09-26T05:54:22.947Z,103161.00
2018-09-26T05:56:53.088Z,103166.00
2018-09-26T05:59:22.861Z,103162.00
2018-09-26T06:01:52.896Z,103159.00
2018-09-26T06:04:22.861Z,103162.00
2018-09-26T06:06:53.001Z,103163.00
2018-09-26T06:09:22.925Z,103159.00
2018-09-26T06:11:52.873Z,103147.00
2018-09-26T06:14:22.928Z,103146.00
2018-09-26T06:16:52.897Z,103148.00
2018-09-26T06:19:23.115Z,103145.00
2018-09-26T06:21:52.905Z,103145.00
2018-09-26T06:24:22.869Z,103132.00
2018-09-26T06:26:52.903Z,103118.00
2018-09-26T06:29:22.922Z,103101.00
2018-09-26T06:31:52.937Z,103103.00
2018-09-26T06:34:22.942Z,103097.00
2018-09-26T06:36:52.937Z,103114.00
2018-09-26T06:39:22.909Z,103108.00
2018-09-26T06:41:52.918Z,103107.00
2018-09-26T06:44:22.940Z,103117.00
2018-09-26T06:46:52.933Z,103116.00
2018-09-26T06:49:23.047Z,103116.00
2018-09-26T06:51:52.951Z,103117.00
2018-09-26T06:54:23.019Z,103122.00
2018-09-26T06:56:52.957Z,103125.00
2018-09-26T06:59:22.970Z,103128.00
2018-09-26T07:01:52.962Z,103124.00
2018-09-26T07:04:23.125Z,103133.00
2018-09-26T07:06:52.942Z,103127.00
2018-09-26T07:09:23.042Z,103123.00
2018-09-26T07:11:53.038Z,103123.00
2018-09-26T07:14:23.002Z,103133.00
2018-09-26T07:16:53.053Z,103135.00
2018-09-26T07:19:23.051Z,103136.00
2018-09-26T07:21:53.043Z,103140.00
2018-09-26T07:24:23.035Z,103144.00
2018-09-26T07:26:53.009Z,103134.00
2018-09-26T07:29:23.078Z,103126.00
2018-09-26T07:31:53.010Z,103128.00
2018-09-26T07:34:28.234Z,103130.00
2018-09-26T07:36:57.520Z,103137.00
2018-09-26T07:39:26.797Z,103145.00
2018-09-26T07:41:56.138Z,103139.00
2018-09-26T07:44:25.408Z,103132.00
2018-09-26T07:46:54.726Z,103134.00
2018-09-26T07:49:24.038Z,103134.00
2018-09-26T07:51:53.399Z,103131.00
2018-09-26T07:54:23.090Z,103138.00
2018-09-26T07:56:53.221Z,103144.00
2018-09-26T07:59:23.169Z,103136.00
2018-09-26T08:01:53.142Z,103124.00
2018-09-26T08:04:23.219Z,103121.00
2018-09-26T08:06:53.174Z,103118.00
2018-09-26T08:09:23.309Z,103110.00
2018-09-26T08:11:53.236Z,103094.00
2018-09-26T08:14:23.207Z,103099.00
2018-09-26T08:16:53.269Z,103093.00
2018-09-26T08:19:23.223Z,103092.00
2018-09-26T08:21:53.203Z,103086.00
2018-09-26T08:24:23.712Z,103083.00
2018-09-26T08:26:53.248Z,103085.00
2018-09-26T08:29:23.276Z,103078.00
2018-09-26T08:31:53.272Z,103075.00
2018-09-26T08:34:23.294Z,103080.00
2018-09-26T08:36:53.363Z,103098.00
2018-09-26T08:39:23.290Z,103099.00
2018-09-26T08:41:53.438Z,103103.00
2018-09-26T08:44:23.271Z,103097.00
2018-09-26T08:46:53.296Z,103097.00
2018-09-26T08:49:23.432Z,103094.00
2018-09-26T08:51:53.332Z,103093.00
2018-09-26T08:54:23.332Z,103088.00
2018-09-26T08:56:53.375Z,103080.00
2018-09-26T08:59:23.365Z,103076.00
2018-09-26T09:01:53.345Z,103085.00
2018-09-26T09:04:23.399Z,103086.00
2018-09-26T09:06:53.377Z,103082.00
2018-09-26T09:09:23.417Z,103076.00
2018-09-26T09:11:53.348Z,103081.00
2018-09-26T09:14:23.503Z,103060.00
2018-09-26T09:16:53.322Z,103059.00
2018-09-26T09:19:23.477Z,103057.00
2018-09-26T09:21:53.404Z,103051.00
2018-09-26T09:24:23.423Z,103042.00
2018-09-26T09:26:53.380Z,103031.00
2018-09-26T09:29:23.449Z,103032.00
2018-09-26T09:31:53.398Z,103033.00
2018-09-26T09:34:23.454Z,103034.00
2018-09-26T09:36:53.530Z,103035.00
2018-09-26T09:39:23.458Z,103040.00
2018-09-26T09:41:53.425Z,103035.00
2018-09-26T09:44:23.502Z,103032.00
2018-09-26T09:46:53.538Z,103031.00
2018-09-26T09:49:23.439Z,103039.00
2018-09-26T09:51:53.426Z,103038.00
2018-09-26T09:54:23.493Z,103026.00
2018-09-26T09:56:53.500Z,103038.00
2018-09-26T09:59:23.542Z,103030.00
2018-09-26T10:01:53.493Z,103034.00
2018-09-26T10:04:23.548Z,103026.00
2018-09-26T10:06:53.566Z,103029.00
2018-09-26T10:09:23.463Z,103029.00
2018-09-26T10:11:53.550Z,103021.00
2018-09-26T10:14:23.485Z,103014.00
2018-09-26T10:16:53.611Z,103005.00
2018-09-26T10:19:23.817Z,103009.00
2018-09-26T10:21:53.618Z,103014.00
2018-09-26T10:24:23.703Z,103012.00
2018-09-26T10:26:53.523Z,103019.00
2018-09-26T10:29:23.585Z,103010.00
2018-09-26T10:31:53.576Z,103012.00
2018-09-26T10:34:23.601Z,103009.00
2018-09-26T10:36:53.636Z,103004.00
2018-09-26T10:39:23.635Z,103002.00
2018-09-26T10:41:53.555Z,102995.00
2018-09-26T10:44:23.735Z,103000.00
2018-09-26T10:46:53.604Z,102992.00
2018-09-26T10:49:23.550Z,102991.00
2018-09-26T10:51:53.776Z,102995.00
2018-09-26T10:54:23.619Z,102989.00
2018-09-26T10:56:53.686Z,102983.00
2018-09-26T10:59:23.619Z,102968.00
2018-09-26T11:01:53.624Z,102969.00
2018-09-26T11:04:23.884Z,102962.00
2018-09-26T11:06:53.621Z,102947.00
2018-09-26T11:09:23.711Z,102948.00
2018-09-26T11:11:53.679Z,102953.00
2018-09-26T11:14:23.759Z,102953.00
2018-09-26T11:16:53.639Z,102949.00
2018-09-26T11:19:23.675Z,102944.00
2018-09-26T11:21:53.745Z,102941.00
2018-09-26T11:24:23.741Z,102926.00
2018-09-26T11:26:53.721Z,102911.00
2018-09-26T11:29:23.804Z,102908.00
2018-09-26T11:31:53.715Z,102904.00
2018-09-26T11:34:23.749Z,102899.00
2018-09-26T11:36:53.731Z,102892.00
2018-09-26T11:39:23.714Z,102884.00
2018-09-26T11:41:53.855Z,102882.00
2018-09-26T11:44:23.835Z,102894.00
2018-09-26T11:46:53.753Z,102891.00
2018-09-26T11:49:23.766Z,102891.00
2018-09-26T11:51:53.704Z,102885.00
2018-09-26T11:54:23.709Z,102888.00
2018-09-26T11:56:53.857Z,102880.00
2018-09-26T11:59:23.718Z,102889.00
2018-09-26T12:01:53.848Z,102880.00
2018-09-26T12:04:23.880Z,102860.00
2018-09-26T12:06:53.826Z,102849.00
2018-09-26T12:09:23.805Z,102863.00
2018-09-26T12:11:54.196Z,102857.00
2018-09-26T12:14:23.861Z,102856.00
2018-09-26T12:16:53.752Z,102837.00
2018-09-26T12:19:23.968Z,102828.00
2018-09-26T12:21:53.828Z,102827.00
2018-09-26T12:24:23.878Z,102826.00
2018-09-26T12:26:53.837Z,102833.00
2018-09-26T12:29:23.794Z,102842.00
2018-09-26T12:31:53.902Z,102832.00
2018-09-26T12:34:23.971Z,102842.00
2018-09-26T12:36:53.782Z,102833.00
2018-09-26T12:39:23.905Z,102830.00
2018-09-26T12:41:53.971Z,102816.00
2018-09-26T12:44:23.992Z,102816.00
2018-09-26T12:46:53.905Z,102826.00
2018-09-26T12:49:23.923Z,102823.00
2018-09-26T12:51:53.993Z,102816.00
2018-09-26T12:54:23.886Z,102821.00
2018-09-26T12:56:53.818Z,102834.00
2018-09-26T12:59:23.867Z,102835.00
2018-09-26T13:01:53.963Z,102841.00
2018-09-26T13:04:23.831Z,102834.00
2018-09-26T13:06:53.954Z,102823.00
2018-09-26T13:09:23.896Z,102824.00
2018-09-26T13:11:53.875Z,102818.00
2018-09-26T13:14:24.016Z,102811.00
2018-09-26T13:16:53.946Z,102817.00
2018-09-26T13:19:23.966Z,102814.00
2018-09-26T13:21:54.029Z,102802.00
2018-09-26T13:24:23.962Z,102801.00
2018-09-26T13:26:54.106Z,102794.00
2018-09-26T13:29:23.942Z,102793.00
2018-09-26T13:31:53.927Z,102792.00
2018-09-26T13:34:24.034Z,102790.00
2018-09-26T13:36:54.046Z,102789.00
2018-09-26T13:39:24.012Z,102786.00
2018-09-26T13:44:28.613Z,102789.00
2018-09-26T13:46:57.908Z,102791.00
2018-09-26T13:49:27.243Z,102789.00
2018-09-26T13:51:56.529Z,102778.00
2018-09-26T13:54:25.880Z,102774.00
2018-09-26T13:56:55.118Z,102778.00
2018-09-26T13:59:24.446Z,102767.00
2018-09-26T14:01:54.233Z,102767.00
2018-09-26T14:04:24.143Z,102771.00
2018-09-26T14:06:59.395Z,102765.00
2018-09-26T14:09:28.866Z,102762.00
2018-09-26T14:11:58.154Z,102758.00
2018-09-26T14:14:27.572Z,102751.00
2018-09-26T14:16:56.850Z,102745.00
2018-09-26T14:19:26.172Z,102746.00
2018-09-26T14:21:55.494Z,102745.00
2018-09-26T14:24:24.811Z,102748.00
2018-09-26T14:26:54.131Z,102739.00
2018-09-26T14:29:24.241Z,102739.00
2018-09-26T14:31:57.220Z,102740.00
2018-09-26T14:34:26.652Z,102739.00
2018-09-26T14:36:56.021Z,102734.00
2018-09-26T14:39:25.417Z,102731.00
2018-09-26T14:41:54.682Z,102727.00
2018-09-26T14:44:24.384Z,102729.00
2018-09-26T14:46:54.081Z,102724.00
2018-09-26T14:49:24.186Z,102728.00
2018-09-26T14:51:54.093Z,102722.00
2018-09-26T14:54:24.105Z,102729.00
2018-09-26T14:56:54.237Z,102737.00
2018-09-26T14:59:24.232Z,102738.00
2018-09-26T15:01:54.259Z,102730.00
2018-09-26T15:04:24.253Z,102737.00
2018-09-26T15:06:54.135Z,102733.00
2018-09-26T15:09:24.218Z,102738.00
2018-09-26T15:11:54.252Z,102735.00
2018-09-26T15:14:24.293Z,102729.00
2018-09-26T15:16:54.292Z,102725.00
2018-09-26T15:19:24.189Z,102729.00
2018-09-26T15:21:54.149Z,102735.00
2018-09-26T15:24:24.274Z,102732.00
2018-09-26T15:26:53.534Z,102738.00
2018-09-26T15:29:22.873Z,102739.00
2018-09-26T15:31:52.206Z,102746.00
2018-09-26T15:34:21.582Z,102747.00
2018-09-26T15:36:50.853Z,102744.00
2018-09-26T15:39:20.191Z,102744.00
2018-09-26T15:41:49.594Z,102742.00
2018-09-26T15:44:18.985Z,102754.00
2018-09-26T15:46:48.283Z,102754.00
2018-09-26T15:49:17.614Z,102750.00
2018-09-26T15:51:47.093Z,102765.00
2018-09-26T15:54:16.443Z,102761.00
2018-09-26T15:56:45.764Z,102770.00
2018-09-26T15:59:15.147Z,102775.00
2018-09-26T16:01:44.499Z,102783.00
2018-09-26T16:04:13.878Z,102787.00
2018-09-26T16:06:43.207Z,102795.00
2018-09-26T16:09:12.514Z,102795.00
2018-09-26T16:11:41.827Z,102784.00
2018-09-26T16:14:11.234Z,102776.00
2018-09-26T16:16:40.497Z,102782.00
2018-09-26T16:19:09.864Z,102778.00
2018-09-26T16:21:39.193Z,102778.00
2018-09-26T16:24:08.540Z,102777.00
2018-09-26T16:26:37.879Z,102785.00
2018-09-26T16:29:07.255Z,102788.00
2018-09-26T16:31:36.711Z,102781.00
2018-09-26T16:34:05.995Z,102775.00
2018-09-26T16:36:35.260Z,102772.00
2018-09-26T16:39:06.620Z,102769.00
2018-09-26T16:41:35.862Z,102769.00
2018-09-26T16:44:05.162Z,102768.00
2018-09-26T16:46:34.609Z,102763.00
2018-09-26T16:49:07.863Z,102768.00
2018-09-26T16:51:37.185Z,102762.00
2018-09-26T16:54:06.576Z,102759.00
2018-09-26T16:56:35.894Z,102760.00
2018-09-26T16:59:05.466Z,102770.00
2018-09-26T17:01:34.735Z,102773.00
2018-09-26T17:04:04.088Z,102777.00
2018-09-26T17:06:33.366Z,102775.00
2018-09-26T17:09:02.679Z,102769.00
2018-09-26T17:11:32.796Z,102773.00
2018-09-26T17:14:02.169Z,102779.00
2018-09-26T17:16:31.510Z,102778.00
2018-09-26T17:19:00.882Z,102781.00
2018-09-26T17:21:30.157Z,102783.00
2018-09-26T17:23:59.456Z,102786.00
2018-09-26T17:26:28.737Z,102785.00
2018-09-26T17:28:58.439Z,102789.00
2018-09-26T17:31:28.409Z,102781.00
2018-09-26T17:33:58.345Z,102784.00
2018-09-26T17:36:28.394Z,102782.00
2018-09-26T17:38:58.357Z,102782.00
2018-09-26T17:41:28.480Z,102789.00
2018-09-26T17:43:58.458Z,102789.00
2018-09-26T17:46:28.371Z,102792.00
2018-09-26T17:48:58.391Z,102788.00
2018-09-26T17:51:28.422Z,102782.00
2018-09-26T17:53:58.638Z,102784.00
2018-09-26T17:56:28.549Z,102788.00
2018-09-26T17:58:58.465Z,102787.00
2018-09-26T18:01:28.992Z,102785.00
2018-09-26T18:03:58.427Z,102786.00
2018-09-26T18:06:28.431Z,102790.00
2018-09-26T18:08:58.500Z,102779.00
2018-09-26T18:11:28.479Z,102768.00
2018-09-26T18:13:58.410Z,102764.00
2018-09-26T18:16:28.506Z,102768.00
2018-09-26T18:18:58.567Z,102766.00
2018-09-26T18:21:28.456Z,102768.00
2018-09-26T18:23:58.518Z,102780.00
2018-09-26T18:26:28.495Z,102779.00
2018-09-26T18:28:58.565Z,102784.00
2018-09-26T18:31:28.510Z,102777.00
2018-09-26T18:33:58.491Z,102775.00
2018-09-26T18:36:28.529Z,102786.00
2018-09-26T18:38:58.620Z,102786.00
2018-09-26T18:41:28.546Z,102792.00
2018-09-26T18:43:58.506Z,102783.00
2018-09-26T18:46:28.526Z,102776.00
2018-09-26T18:48:58.545Z,102789.00
2018-09-26T18:51:32.568Z,102778.00
2018-09-26T18:54:01.868Z,102777.00
2018-09-26T18:56:31.157Z,102771.00
2018-09-26T18:59:00.460Z,102773.00
2018-09-26T19:01:29.944Z,102783.00
2018-09-26T19:03:59.262Z,102791.00
2018-09-26T19:06:28.592Z,102791.00
2018-09-26T19:08:58.664Z,102803.00
2018-09-26T19:11:28.593Z,102804.00
2018-09-26T19:13:58.651Z,102805.00
2018-09-26T19:16:28.610Z,102800.00
2018-09-26T19:18:58.639Z,102813.00
2018-09-26T19:21:28.701Z,102819.00
2018-09-26T19:23:58.714Z,102820.00
2018-09-26T19:26:28.714Z,102824.00
2018-09-26T19:28:58.776Z,102816.00
2018-09-26T19:31:28.683Z,102813.00
2018-09-26T19:33:58.770Z,102819.00
2018-09-26T19:36:28.752Z,102820.00
2018-09-26T19:38:58.820Z,102831.00
2018-09-26T19:41:28.714Z,102824.00
2018-09-26T19:43:58.915Z,102828.00
2018-09-26T19:46:28.734Z,102832.00
2018-09-26T19:48:58.755Z,102834.00
2018-09-26T19:51:28.789Z,102827.00
2018-09-26T19:53:58.746Z,102817.00
2018-09-26T19:56:28.847Z,102812.00
2018-09-26T19:58:58.794Z,102823.00
2018-09-26T20:01:28.774Z,102816.00
2018-09-26T20:03:58.862Z,102826.00
2018-09-26T20:06:28.764Z,102831.00
2018-09-26T20:08:58.803Z,102833.00
2018-09-26T20:11:28.825Z,102832.00
2018-09-26T20:13:59.399Z,102834.00
2018-09-26T20:16:28.908Z,102838.00
2018-09-26T20:18:58.926Z,102843.00
2018-09-26T20:21:28.996Z,102834.00
2018-09-26T20:23:58.893Z,102839.00
2018-09-26T20:26:28.868Z,102831.00
2018-09-26T20:28:59.172Z,102837.00
2018-09-26T20:31:28.926Z,102840.00
2018-09-26T20:33:58.911Z,102834.00
2018-09-26T20:36:28.904Z,102829.00
2018-09-26T20:38:59.023Z,102828.00
2018-09-26T20:41:28.913Z,102827.00
2018-09-26T20:43:59.001Z,102826.00
2018-09-26T20:46:28.903Z,102817.00
2018-09-26T20:48:58.956Z,102812.00
2018-09-26T20:51:28.902Z,102817.00
2018-09-26T20:53:59.058Z,102814.00
2018-09-26T20:56:29.003Z,102814.00
2018-09-26T20:58:59.038Z,102809.00
2018-09-26T21:01:29.000Z,102802.00
2018-09-26T21:03:58.957Z,102802.00
2018-09-26T21:06:29.071Z,102803.00
2018-09-26T21:08:59.050Z,102796.00
2018-09-26T21:11:29.050Z,102794.00
2018-09-26T21:13:58.932Z,102799.00
2018-09-26T21:16:29.075Z,102794.00
2018-09-26T21:18:59.153Z,102802.00
2018-09-26T21:21:29.034Z,102800.00
2018-09-26T21:23:59.010Z,102805.00
2018-09-26T21:26:29.093Z,102803.00
2018-09-26T21:28:59.053Z,102809.00
2018-09-26T21:31:29.091Z,102811.00
2018-09-26T21:33:59.125Z,102806.00
2018-09-26T21:36:29.147Z,102806.00
2018-09-26T21:38:59.226Z,102796.00
2018-09-26T21:41:29.089Z,102794.00
2018-09-26T21:44:01.039Z,102799.00
2018-09-26T21:46:30.398Z,102799.00
2018-09-26T21:48:59.715Z,102795.00
2018-09-26T21:51:29.154Z,102801.00
2018-09-26T21:53:59.267Z,102809.00
2018-09-26T21:56:29.091Z,102813.00
2018-09-26T21:58:59.120Z,102810.00
2018-09-26T22:01:31.614Z,102818.00
2018-09-26T22:04:00.975Z,102813.00
2018-09-26T22:06:30.295Z,102821.00
2018-09-26T22:08:59.588Z,102816.00
2018-09-26T22:11:29.193Z,102811.00
2018-09-26T22:13:59.249Z,102812.00
2018-09-26T22:16:29.259Z,102812.00
2018-09-26T22:18:59.225Z,102806.00
2018-09-26T22:21:29.230Z,102808.00
2018-09-26T22:23:59.190Z,102804.00
2018-09-26T22:26:29.279Z,102804.00
2018-09-26T22:28:59.206Z,102813.00
2018-09-26T22:31:29.285Z,102806.00
2018-09-26T22:33:59.362Z,102811.00
2018-09-26T22:36:29.261Z,102806.00
2018-09-26T22:38:59.245Z,102810.00
2018-09-26T22:41:29.271Z,102801.00
2018-09-26T22:43:59.310Z,102805.00
2018-09-26T22:46:29.285Z,102802.00
2018-09-26T22:48:59.352Z,102800.00
2018-09-26T22:51:29.327Z,102794.00
2018-09-26T22:53:59.263Z,102792.00
2018-09-26T22:56:29.337Z,102793.00
2018-09-26T22:58:59.301Z,102798.00
2018-09-26T23:01:29.274Z,102799.00
2018-09-26T23:03:59.291Z,102798.00
2018-09-26T23:06:29.396Z,102797.00
2018-09-26T23:08:59.402Z,102798.00
2018-09-26T23:11:29.324Z,102806.00
2018-09-26T23:13:59.314Z,102794.00
2018-09-26T23:16:29.572Z,102800.00
2018-09-26T23:18:59.351Z,102799.00
2018-09-26T23:21:29.308Z,102795.00
2018-09-26T23:23:59.418Z,102790.00
2018-09-26T23:26:29.329Z,102788.00
2018-09-26T23:28:59.370Z,102792.00
2018-09-26T23:31:29.405Z,102790.00
2018-09-26T23:33:59.451Z,102789.00
2018-09-26T23:36:29.440Z,102789.00
2018-09-26T23:38:59.487Z,102789.00
2018-09-26T23:41:29.587Z,102783.00
2018-09-26T23:43:59.473Z,102783.00
2018-09-26T23:46:29.520Z,102781.00
2018-09-26T23:48:59.478Z,102781.00
2018-09-26T23:51:29.498Z,102773.00
2018-09-26T23:54:00.213Z,102779.00
2018-09-26T23:56:29.774Z,102773.00
2018-09-26T23:58:59.574Z,102767.00
